Date,TemperatureHighF,TemperatureAvgF,TemperatureLowF,DewpointHighF,DewpointAvgF,DewpointLowF,HumidityHigh,HumidityAvg,HumidityLow,PressureMaxIn,PressureMinIn,WindSpeedMaxMPH,WindSpeedAvgMPH,GustSpeedMaxMPH,PrecipitationSumIn
2013-1-1,14.9,7.0,0.7,4.7,-1.1,-6.6,70,68,63,29.54,29.41,0,0,0,0.00
2013-1-2,25.7,16.5,6.5,20.9,9.6,-1.1,84,74,70,29.41,29.28,0,0,0,0.00
2013-1-3,26.8,16.8,7.7,22.8,10.7,2.1,85,76,71,29.59,29.35,0,0,0,0.00
2013-1-4,33.3,19.7,7.9,23.8,13.6,2.6,84,77,67,29.52,29.41,0,0,0,0.00
2013-1-5,35.6,26.8,19.6,29.5,21.5,13.8,85,80,76,29.42,29.19,0,0,0,0.06
2013-1-6,26.6,17.2,11.9,18.5,11.2,7.3,83,77,68,29.53,29.26,0,0,0,0.00
2013-1-7,42.8,28.4,16.2,30.5,20.9,10.9,80,74,61,29.48,29.27,0,0,0,0.00
2013-1-8,43.0,32.4,24.1,32.6,25.8,18.3,82,77,64,29.29,29.15,0,0,0,0.00
2013-1-9,38.9,32.8,29.0,30.5,27.1,23.9,84,79,72,29.69,29.28,0,0,0,0.00
2013-1-10,42.1,33.8,28.8,29.5,26.5,23.9,82,75,60,29.67,29.25,0,0,0,0.00
2013-1-11,46.6,41.6,35.3,44.2,39.1,32.1,94,91,85,29.00,28.78,0,0,4,0.10
2013-1-12,47.3,26.8,16.9,42.3,19.1,7.9,85,73,63,29.33,28.83,0,0,0,0.00
2013-1-13,16.4,12.7,9.0,7.4,4.8,1.3,75,70,64,29.54,29.23,0,0,0,0.00
2013-1-14,33.8,16.3,7.2,14.7,7.2,0.5,75,67,46,29.70,29.54,0,0,29,0.00
2013-1-15,34.9,21.2,14.6,16.4,10.7,7.4,75,64,42,29.63,29.32,0,0,0,0.00
2013-1-16,43.7,29.3,16.9,31.9,20.7,8.9,81,70,59,29.40,29.10,0,0,0,0.00
2013-1-17,36.9,23.3,14.8,22.4,13.6,8.4,76,67,47,29.67,29.41,0,0,0,0.00
2013-1-18,56.0,36.7,24.1,32.7,25.8,16.4,78,66,43,29.60,29.12,2,0,4,0.00
2013-1-19,53.6,35.9,15.1,34.2,26.4,4.5,79,69,49,29.44,29.04,0,0,10,0.00
2013-1-20,14.8,11.2,7.4,7.2,2.8,-0.5,74,68,61,29.62,29.44,0,0,0,0.00
2013-1-21,14.9,3.1,-2.7,1.9,-6.1,-11.9,74,65,50,29.61,29.51,0,0,0,0.00
2013-1-22,13.3,6.0,-2.2,1.2,-4.1,-9.3,71,63,52,29.66,29.55,0,0,0,0.00
2013-1-23,32.6,16.7,6.5,14.0,4.8,-5.8,67,59,47,29.71,29.39,0,0,0,0.00
2013-1-24,22.3,13.1,4.9,6.2,-1.9,-7.3,58,51,41,29.87,29.49,0,0,0,0.00
2013-1-25,36.2,22.4,10.6,19.3,9.7,0.2,66,58,51,29.53,29.28,0,0,0,0.00
2013-1-26,43.9,19.7,6.1,17.3,6.1,-2.3,68,57,36,29.62,29.47,0,0,0,0.00
2013-1-27,37.3,31.3,27.7,34.3,23.5,13.0,89,74,54,29.47,29.02,0,0,0,0.20
2013-1-28,41.6,37.2,32.6,38.9,34.0,30.0,90,88,84,29.19,28.90,0,0,0,0.04
2013-1-29,54.5,41.3,32.4,52.1,38.5,29.5,94,89,88,28.91,28.76,11,1,11,0.31
2013-1-30,32.6,22.5,11.7,29.7,18.2,6.8,89,83,74,29.04,28.66,0,0,0,0.00
2013-1-31,14.2,5.0,-1.6,9.0,-1.3,-8.3,79,74,66,29.55,29.05,0,0,0,0.00
2013-2-1,16.2,2.6,-7.4,10.0,-4.8,-13.7,76,70,62,29.62,29.31,0,0,0,0.00
2013-2-2,23.9,18.5,14.0,17.1,11.2,6.1,78,73,62,29.39,29.23,0,0,0,0.00
2013-2-3,27.2,19.8,12.4,18.0,12.9,6.7,84,74,64,29.38,29.12,0,0,0,0.00
2013-2-4,33.8,23.7,15.3,20.1,15.4,8.5,77,71,56,29.23,29.04,0,0,0,0.00
2013-2-5,37.1,26.2,15.5,28.8,20.3,9.6,83,78,71,29.36,29.05,0,0,0,0.00
2013-2-6,41.0,29.5,16.7,33.0,23.4,11.7,83,78,69,29.40,29.21,0,0,0,0.00
2013-2-7,38.5,34.1,28.4,34.7,30.1,24.3,88,85,80,29.39,29.16,0,0,0,0.41
2013-2-8,34.7,29.7,27.2,27.3,23.7,21.9,84,78,71,29.60,29.39,0,0,0,0.00
2013-2-9,33.3,29.0,26.8,26.7,23.9,22.1,85,81,76,29.56,29.20,0,0,0,0.00
2013-2-10,47.5,36.8,30.8,43.5,32.7,26.1,91,85,71,29.19,28.58,3,0,9,0.31
2013-2-11,32.0,28.5,24.1,26.0,21.1,17.7,78,74,69,29.35,28.78,0,0,0,0.00
2013-2-12,45.5,30.0,23.2,28.0,21.4,16.5,77,71,49,29.38,29.12,0,0,0,0.00
2013-2-13,45.5,33.8,25.0,33.0,26.5,20.8,85,75,60,29.12,28.91,0,0,0,0.00
2013-2-14,39.4,33.5,24.1,29.4,26.9,15.1,85,77,64,29.35,28.92,0,0,0,0.00
2013-2-15,32.9,21.2,15.8,15.4,11.4,7.5,75,66,49,29.52,29.36,0,0,0,0.00
2013-2-16,36.9,18.1,10.6,22.8,9.6,4.3,78,69,55,29.52,29.39,0,0,0,0.00
2013-2-17,50.8,26.8,15.1,29.3,17.3,8.9,77,68,45,29.39,29.01,0,0,0,0.00
2013-2-18,47.5,31.0,13.1,33.8,23.5,5.0,81,74,59,29.08,28.81,0,0,0,0.00
2013-2-19,26.6,10.5,3.2,7.2,0.7,-5.0,72,64,44,29.57,29.08,0,0,0,0.00
2013-2-20,44.8,15.1,1.1,18.7,3.4,-6.5,70,60,35,29.66,29.56,0,0,0,0.00
2013-2-21,29.2,22.3,13.3,20.9,13.9,5.1,81,70,61,29.60,29.14,0,0,0,0.00
2013-2-22,36.7,27.0,22.3,27.6,20.8,16.6,81,77,67,29.20,29.03,0,0,0,0.10
2013-2-23,41.9,22.8,13.9,26.1,15.0,6.8,80,72,50,29.23,29.17,0,0,0,0.00
2013-2-24,57.1,23.7,7.9,31.6,14.2,0.9,76,67,40,29.34,29.22,0,0,0,0.00
2013-2-25,46.1,32.7,21.6,31.3,23.8,15.7,79,70,56,29.35,29.17,0,0,0,0.00
2013-2-26,38.5,32.8,30.1,28.1,26.1,24.5,86,76,66,29.16,28.90,0,0,0,0.00
2013-2-27,36.0,31.5,29.0,29.1,26.8,25.5,87,83,73,29.14,28.96,0,0,0,0.18
2013-2-28,39.4,31.5,27.0,28.1,24.8,22.0,85,76,63,29.37,29.14,0,0,0,0.02
2013-3-1,38.9,29.6,22.5,23.9,20.2,13.5,82,69,53,29.53,29.36,0,0,0,0.04
2013-3-2,25.9,17.0,9.5,15.3,8.9,3.3,75,70,63,29.54,29.44,0,0,0,0.00
2013-3-3,38.9,23.5,9.2,22.8,13.3,2.4,75,66,51,29.43,29.25,0,0,0,0.00
2013-3-4,40.9,31.2,25.7,28.6,22.3,16.4,77,70,61,29.28,29.12,0,0,0,0.06
2013-3-5,33.8,29.2,24.3,25.9,22.7,18.5,82,77,68,29.44,29.17,0,0,0,0.16
2013-3-6,34.7,24.1,12.6,21.8,15.9,5.7,82,71,58,29.61,29.44,0,0,0,0.00
2013-3-7,48.4,20.9,3.4,27.8,12.0,-2.8,75,69,44,29.64,29.57,0,0,0,0.00
2013-3-8,51.5,33.4,22.5,33.8,24.7,16.6,80,71,52,29.60,29.41,0,0,0,0.00
2013-3-9,39.4,36.1,34.4,36.7,32.3,28.5,90,86,79,29.39,28.96,0,0,0,1.18
2013-3-10,39.4,37.2,33.8,36.5,34.1,30.7,89,88,87,28.99,28.83,0,0,0,0.45
2013-3-11,33.8,30.3,25.7,30.7,26.1,19.2,89,84,76,29.15,28.89,0,0,0,0.00
2013-3-12,33.7,26.3,21.4,27.3,20.1,15.4,83,77,65,29.41,29.16,0,0,0,0.00
2013-3-13,46.4,24.7,16.7,21.6,15.2,11.6,80,68,39,29.64,29.41,0,0,0,0.00
2013-3-14,53.8,35.3,23.0,35.0,25.5,16.0,78,69,49,29.58,29.32,0,0,0,0.00
2013-3-15,71.1,38.8,29.7,43.7,30.4,24.3,83,73,39,29.30,29.00,0,0,3,0.00
2013-3-16,35.3,31.9,26.6,29.7,25.2,18.5,87,76,68,29.43,29.03,0,0,0,0.00
2013-3-17,42.7,31.3,24.1,27.7,20.9,15.8,73,66,54,29.43,29.16,0,0,0,0.00
2013-3-18,33.1,27.7,16.4,29.1,20.9,8.7,86,75,61,29.18,28.95,0,0,0,0.02
2013-3-19,32.2,20.1,11.7,19.3,10.8,4.5,75,67,56,29.44,29.16,0,0,0,0.00
2013-3-20,29.3,17.3,10.4,10.6,6.5,2.3,71,63,46,29.49,29.37,0,0,0,0.00
2013-3-21,60.8,23.5,9.7,26.9,10.0,2.3,72,59,28,29.37,29.26,0,0,0,0.00
2013-3-22,43.4,28.0,15.8,22.7,16.0,8.8,75,62,44,29.32,29.26,0,0,0,0.00
2013-3-23,47.5,34.8,24.1,25.8,22.2,17.7,77,62,43,29.36,29.26,0,0,8,0.00
2013-3-24,36.7,31.7,28.4,28.5,25.4,23.0,84,77,72,29.28,29.08,0,0,0,0.12
2013-3-25,39.4,31.5,26.8,26.6,23.2,20.6,85,72,59,29.44,29.15,0,0,0,0.04
2013-3-26,39.1,30.8,22.3,28.9,23.3,18.3,84,74,63,29.55,29.44,0,0,0,0.00
2013-3-27,66.4,38.0,26.1,33.6,24.6,20.2,80,62,30,29.60,29.52,0,0,9,0.00
2013-3-28,65.5,40.4,25.0,38.4,27.3,18.6,78,62,37,29.60,29.49,8,0,10,0.00
2013-3-29,81.9,45.7,28.6,40.2,30.1,22.3,78,59,26,29.55,29.42,9,1,11,0.00
2013-3-30,50.2,43.2,36.7,43.4,36.6,27.5,89,78,64,29.42,29.13,2,0,2,0.06
2013-3-31,54.7,38.7,30.8,38.7,30.3,21.7,91,74,43,29.29,29.11,0,0,4,0.00
2013-4-1,55.3,31.4,23.2,23.5,18.4,14.2,75,61,31,29.51,29.30,0,0,0,0.00
2013-4-2,50.2,30.8,21.2,22.8,18.0,14.6,79,61,36,29.60,29.51,0,0,0,0.00
2013-4-3,57.1,36.1,20.3,24.1,18.4,12.8,74,53,29,29.68,29.51,0,0,8,0.00
2013-4-4,66.8,43.9,28.8,40.4,26.6,16.7,69,52,39,29.51,29.27,9,0,11,0.00
2013-4-5,57.8,43.6,29.5,32.0,27.1,22.2,76,56,36,29.46,29.20,6,0,6,0.00
2013-4-6,63.7,50.8,41.2,48.3,36.4,24.3,80,59,47,29.20,28.83,10,1,10,0.00
2013-4-7,86.2,51.3,36.7,48.3,38.1,31.4,82,65,29,29.22,29.00,12,2,12,0.00
2013-4-8,78.8,59.7,47.3,53.1,46.9,39.7,87,66,41,29.10,28.90,13,3,13,0.61
2013-4-9,58.0,50.1,42.7,54.1,45.1,38.0,88,83,73,29.16,29.01,4,0,8,0.94
2013-4-10,42.7,39.0,35.8,38.8,35.1,32.3,88,86,84,29.26,28.97,0,0,0,1.02
2013-4-11,47.9,40.7,34.9,42.6,36.6,30.6,88,85,81,28.98,28.84,0,0,3,0.22
2013-4-12,39.2,35.7,33.1,32.6,30.1,27.9,89,80,70,29.16,28.84,0,0,0,0.00
2013-4-13,50.0,40.5,30.4,32.9,29.5,24.6,82,66,51,29.24,29.14,5,0,5,0.00
2013-4-14,72.0,52.1,38.3,52.0,41.6,32.2,89,70,45,29.16,28.72,11,2,12,0.80
2013-4-15,50.2,43.4,38.5,47.1,35.9,30.1,89,75,59,29.29,28.87,0,0,0,0.02
2013-4-16,57.4,42.5,30.4,37.0,31.7,25.3,83,67,47,29.48,29.28,5,0,6,0.00
2013-4-17,47.2,43.0,39.4,43.0,36.7,33.7,90,79,62,29.47,28.98,6,0,6,1.67
2013-4-18,52.7,42.8,33.5,50.8,39.8,29.5,93,89,82,28.91,28.67,9,1,11,1.80
2013-4-19,36.7,33.3,30.1,29.4,26.8,23.9,86,77,68,29.28,28.84,0,0,0,0.00
2013-4-20,73.1,39.5,26.5,35.1,26.1,22.3,85,63,26,29.57,29.28,10,0,10,0.00
2013-4-21,64.8,48.4,37.8,44.3,35.3,25.2,69,61,48,29.59,29.39,11,1,11,0.02
2013-4-22,65.5,54.3,46.4,45.6,42.3,39.0,84,66,47,29.43,29.20,9,1,12,0.02
2013-4-23,49.7,39.4,35.3,45.3,31.6,25.7,85,74,62,29.32,29.21,0,0,0,0.00
2013-4-24,61.2,41.5,28.1,36.2,26.9,23.0,82,61,29,29.38,29.28,9,0,11,0.04
2013-4-25,72.2,44.9,30.8,36.3,28.1,23.1,83,57,26,29.53,29.33,10,0,11,0.00
2013-4-26,67.9,55.5,42.1,45.5,39.5,28.4,74,57,43,29.47,29.40,11,2,11,0.00
2013-4-27,82.8,57.4,44.3,49.9,44.0,39.1,83,64,34,29.48,29.24,12,2,12,0.00
2013-4-28,82.4,59.6,40.7,50.5,44.1,35.3,84,61,34,29.24,29.04,11,3,14,0.00
2013-4-29,86.4,64.8,50.4,58.3,52.3,45.4,84,67,41,29.10,28.89,10,2,12,0.00
2013-4-30,89.3,73.6,62.6,56.4,51.5,45.5,79,52,29,29.13,28.87,10,2,11,0.02
2013-5-1,77.2,59.5,43.2,51.4,44.1,33.6,73,59,41,29.48,29.14,12,2,12,0.00
2013-5-2,43.0,38.0,33.5,34.9,32.0,29.5,85,79,70,29.58,29.45,0,0,0,0.47
2013-5-3,40.3,36.6,33.3,37.1,32.6,29.3,88,85,83,29.51,29.18,0,0,0,1.59
2013-5-4,67.7,54.6,40.0,58.7,50.0,36.7,91,85,71,29.29,29.14,12,2,12,0.90
2013-5-5,84.4,62.5,50.9,59.8,52.5,48.1,91,74,37,29.32,29.24,11,3,12,0.00
2013-5-6,77.6,63.1,50.2,55.0,50.3,45.9,86,66,43,29.33,29.25,11,2,12,0.00
2013-5-7,90.2,65.6,49.9,54.8,47.6,43.7,81,58,27,29.32,29.23,11,2,11,0.00
2013-5-8,79.0,63.5,51.1,55.3,50.1,43.0,82,65,40,29.28,29.21,9,2,13,0.02
2013-5-9,70.0,62.0,58.1,60.7,56.2,53.5,88,82,68,29.21,29.07,12,2,12,0.08
2013-5-10,73.4,56.2,49.5,53.9,48.3,44.4,86,76,51,29.26,29.11,10,1,10,0.06
2013-5-11,62.8,51.3,40.7,46.4,33.9,20.8,88,56,28,29.41,29.17,9,1,9,0.00
2013-5-12,67.3,47.8,33.8,30.4,27.5,25.0,71,49,27,29.47,29.36,9,1,12,0.00
2013-5-13,72.7,56.0,36.2,43.0,34.9,26.5,69,49,31,29.42,29.14,12,3,12,0.00
2013-5-14,95.4,75.2,55.1,59.3,52.8,42.5,78,51,26,29.13,28.85,11,2,14,0.00
2013-5-15,86.6,71.5,59.9,52.9,46.8,41.2,56,45,28,29.16,28.94,12,3,12,0.00
2013-5-16,87.1,71.2,56.9,53.8,48.8,44.4,67,49,30,29.19,29.09,11,3,11,0.00
2013-5-17,83.5,71.9,61.9,60.7,57.2,53.5,82,62,43,29.23,29.13,12,4,14,0.00
2013-5-18,86.0,72.5,61.0,64.3,59.4,53.6,84,66,46,29.25,29.09,13,3,13,0.00
2013-5-19,89.3,74.6,65.2,70.2,63.7,57.6,88,71,51,29.13,28.84,11,4,12,0.10
2013-5-20,71.3,63.1,59.9,59.1,57.4,55.7,88,82,65,28.93,28.86,10,1,11,0.02
2013-5-21,75.4,65.5,59.0,58.3,55.0,50.2,90,71,52,28.95,28.85,12,3,12,0.00
2013-5-22,66.2,58.9,54.2,56.7,51.8,48.3,90,78,71,29.05,28.91,9,1,11,0.06
2013-5-23,80.5,61.5,51.1,54.5,49.4,40.3,91,69,35,29.52,29.06,12,2,13,0.08
2013-5-24,73.4,58.1,43.7,44.5,40.1,36.1,79,55,31,29.67,29.48,11,2,14,0.02
2013-5-25,57.4,53.2,50.9,48.7,45.7,42.8,86,77,59,29.53,29.46,0,0,0,0.84
2013-5-26,56.5,53.0,49.9,52.7,49.0,44.9,90,86,82,29.49,29.26,5,0,10,1.37
2013-5-27,71.5,60.9,55.1,64.5,57.4,52.2,93,89,79,29.29,29.03,11,3,12,0.06
2013-5-28,77.2,66.6,60.8,69.5,62.5,57.7,93,87,76,29.06,28.93,11,5,12,0.94
2013-5-29,84.1,69.2,61.0,71.1,62.5,56.3,89,80,66,29.12,28.99,11,3,13,0.06
2013-5-30,76.3,68.7,61.0,65.7,61.9,57.4,88,80,66,29.03,28.88,12,5,16,0.49
2013-5-31,75.6,67.4,59.0,62.6,59.5,56.3,92,78,58,29.01,28.91,11,6,12,0.00
2013-6-1,71.5,65.3,59.9,62.0,57.3,53.1,91,77,60,29.08,28.89,57,5,57,0.00
2013-6-2,75.1,59.2,51.1,55.2,47.0,43.1,85,66,41,29.30,29.09,10,2,12,0.00
2013-6-3,78.1,60.3,31.3,50.1,45.6,11.3,83,62,38,29.36,29.25,12,2,12,0.00
2013-6-4,63.2,58.9,54.4,55.3,50.1,45.4,79,73,66,29.41,29.27,11,1,11,0.08
2013-6-5,66.8,60.8,56.9,61.2,56.0,51.0,90,85,77,29.30,29.18,9,2,11,0.86
2013-6-6,72.5,61.5,55.3,61.1,55.9,52.7,91,83,67,29.21,29.14,10,2,11,0.00
2013-6-7,76.9,62.1,55.3,58.0,53.8,50.9,89,76,47,29.25,29.18,11,2,12,0.00
2013-6-8,76.5,65.3,55.1,56.1,53.2,50.6,86,68,47,29.21,29.13,11,4,15,0.00
2013-6-9,71.8,65.8,60.1,61.0,56.9,52.9,82,74,66,29.13,29.00,13,4,13,0.00
2013-6-10,82.8,66.4,55.6,65.9,57.8,51.5,90,76,50,29.15,29.03,11,3,12,0.00
2013-6-11,92.5,80.6,62.6,68.5,64.8,56.3,82,62,46,29.18,29.05,12,2,12,0.00
2013-6-12,90.5,78.3,67.7,73.6,67.0,56.9,86,70,53,29.15,28.87,13,4,13,0.00
2013-6-13,88.9,73.7,61.6,64.0,59.2,53.5,85,65,37,29.29,29.03,10,2,10,0.02
2013-6-14,80.3,68.2,61.6,62.0,55.8,52.9,74,66,50,29.36,29.10,29,4,29,0.00
2013-6-15,80.3,71.0,64.6,69.0,63.5,57.8,89,78,66,29.28,29.10,11,6,12,0.02
2013-6-16,90.0,74.8,65.9,65.8,58.6,50.7,85,63,32,29.22,29.17,11,1,11,0.00
2013-6-17,92.0,76.6,62.3,59.4,54.7,51.6,73,51,32,29.23,29.13,11,3,12,0.00
2013-6-18,83.5,73.4,62.5,59.3,56.6,53.7,76,58,46,29.30,29.17,10,1,13,0.00
2013-6-19,87.7,74.0,59.6,60.4,55.6,50.5,73,56,41,29.37,29.27,12,3,12,0.00
2013-6-20,89.5,77.5,64.3,64.7,59.7,40.2,75,57,22,29.34,29.23,57,3,57,0.00
2013-6-21,79.4,75.7,65.9,67.6,65.1,59.2,86,71,65,29.36,29.14,13,5,15,0.31
2013-6-22,93.8,81.1,70.4,77.1,69.1,63.7,89,69,52,29.27,29.12,11,3,11,0.35
2013-6-23,86.9,75.7,70.9,71.4,65.8,61.0,82,73,51,29.22,29.11,12,6,12,0.00
2013-6-24,74.3,67.7,65.5,67.3,64.3,62.8,93,89,72,29.28,29.12,15,6,15,1.67
2013-6-25,89.1,76.6,65.9,74.4,69.2,62.5,93,80,60,29.15,28.99,11,4,15,0.04
2013-6-26,87.1,76.9,66.1,74.4,69.5,61.2,91,79,64,29.08,28.95,14,2,15,0.86
2013-6-27,86.2,76.9,66.4,72.8,66.5,62.1,86,71,53,29.15,29.07,11,3,11,0.00
2013-6-28,85.0,75.2,64.3,65.6,59.0,47.7,77,60,48,29.11,28.99,10,1,12,0.00
2013-6-29,76.7,67.3,62.5,66.9,60.2,47.7,87,79,49,29.13,28.97,12,2,12,0.06
2013-6-30,83.0,69.2,58.9,60.5,56.1,51.6,82,66,43,29.32,29.13,12,2,13,0.00
2013-7-1,84.8,69.4,56.0,56.8,52.7,49.5,80,60,37,29.38,29.32,11,1,14,0.00
2013-7-2,85.7,69.0,58.1,63.6,56.9,51.2,82,68,44,29.38,29.28,14,2,14,0.04
2013-7-3,84.4,71.0,58.3,57.5,53.8,51.0,80,58,37,29.35,29.26,11,1,14,0.00
2013-7-4,87.1,73.4,60.5,62.7,56.1,50.3,73,58,39,29.32,29.23,10,2,12,0.00
2013-7-5,88.0,75.8,63.2,64.8,58.6,49.4,80,59,40,29.30,29.21,11,2,12,0.00
2013-7-6,91.4,76.0,64.6,69.3,63.1,58.9,83,67,45,29.26,29.17,28,4,28,0.00
2013-7-7,91.1,78.7,67.3,68.8,65.4,59.8,80,65,49,29.22,29.15,11,4,13,0.00
2013-7-8,94.1,80.2,73.1,74.7,68.9,64.8,79,69,55,29.24,29.16,12,5,14,0.00
2013-7-9,122.0,80.3,72.5,99.9,72.8,68.7,91,80,62,29.25,29.13,12,5,15,0.20
2013-7-10,84.2,75.8,66.1,72.8,63.0,56.2,84,67,48,29.31,29.15,12,4,12,0.00
2013-7-11,86.6,78.1,62.1,61.3,57.8,43.5,78,53,42,29.39,29.31,3,0,10,0.00
2013-7-12,85.1,74.6,61.0,60.1,57.7,53.6,78,59,45,29.39,29.30,10,1,14,0.00
2013-7-13,78.1,68.2,62.3,64.5,58.9,54.8,78,73,63,29.40,29.32,11,2,12,0.00
2013-7-14,90.0,75.7,62.6,67.6,62.0,57.2,84,66,43,29.45,29.36,12,2,12,0.00
2013-7-15,93.4,80.0,66.4,74.4,67.9,60.6,84,69,52,29.51,29.43,11,3,12,0.00
2013-7-16,94.3,83.0,72.7,74.0,71.1,67.9,86,70,51,29.54,29.48,13,4,13,0.00
2013-7-17,95.2,85.1,72.7,74.0,71.0,67.3,84,66,49,29.57,29.44,11,2,13,0.00
2013-7-18,96.5,84.3,73.4,73.8,69.9,66.3,83,65,46,29.45,29.20,12,4,13,0.00
2013-7-19,92.9,82.1,72.7,72.8,67.4,61.5,75,63,47,29.20,29.07,11,4,13,0.00
2013-7-20,90.9,75.1,62.8,65.3,61.4,56.1,81,66,41,29.23,29.13,10,2,12,0.00
2013-7-21,81.2,73.0,66.2,69.0,63.7,58.5,83,73,62,29.19,29.09,11,5,12,0.02
2013-7-22,93.4,74.1,62.5,74.8,65.1,58.8,90,76,52,29.14,28.99,10,1,29,0.16
2013-7-23,81.4,69.5,61.4,61.4,58.3,52.9,85,70,46,29.26,29.04,10,1,15,0.00
2013-7-24,80.8,69.4,56.5,58.7,55.0,51.0,82,63,45,29.34,29.25,10,2,11,0.00
2013-7-25,86.6,72.3,59.9,64.2,59.3,52.4,86,66,49,29.34,29.24,9,1,11,0.53
2013-7-26,78.1,68.8,59.9,67.0,59.4,52.4,90,74,51,29.31,29.21,11,2,14,0.00
2013-7-27,69.8,59.4,52.2,52.2,48.0,45.5,81,68,47,29.30,29.23,11,1,13,0.00
2013-7-28,71.8,58.0,51.1,52.2,48.4,45.8,82,72,51,29.32,29.19,9,1,12,0.00
2013-7-29,79.0,64.0,50.8,55.9,51.2,44.8,82,66,45,29.41,29.33,11,2,13,0.00
2013-7-30,67.3,65.3,63.2,62.2,58.9,54.4,87,80,68,29.37,29.31,9,2,10,0.00
2013-7-31,84.2,72.0,63.5,66.5,62.9,59.0,90,75,52,29.35,29.26,11,2,12,0.00
2013-8-1,86.9,68.8,61.6,63.1,59.3,55.6,82,74,47,29.31,29.17,9,2,11,0.00
2013-8-2,85.7,71.6,64.1,66.4,61.7,58.7,85,73,51,29.26,29.14,11,2,13,0.00
2013-8-3,86.0,69.1,58.0,61.4,56.9,53.3,87,69,42,29.43,29.26,11,1,12,0.00
2013-8-4,84.1,69.0,56.3,57.2,54.2,50.9,83,63,40,29.47,29.34,11,2,11,0.00
2013-8-5,79.4,68.4,60.1,68.5,60.8,52.7,86,77,67,29.33,29.10,12,4,13,0.00
2013-8-6,86.9,77.5,65.2,76.5,67.2,59.5,91,72,56,29.15,29.05,10,1,13,0.00
2013-8-7,83.0,75.5,65.2,67.1,63.9,57.6,89,71,53,29.26,29.06,18,2,18,0.00
2013-8-8,83.9,72.1,56.5,64.2,59.8,51.7,85,68,52,29.29,29.23,9,0,11,0.00
2013-8-9,81.4,73.7,62.3,66.3,62.4,56.8,84,70,59,29.38,29.26,10,1,12,0.00
2013-8-10,86.0,69.5,55.6,64.9,55.8,50.2,83,65,44,29.46,29.37,11,1,12,0.00
2013-8-11,84.2,72.0,63.2,70.3,61.2,55.7,78,70,64,29.40,29.25,11,2,13,0.00
2013-8-12,85.7,72.8,63.5,66.5,60.8,54.2,85,69,43,29.29,29.23,12,2,13,0.00
2013-8-13,82.3,66.4,56.3,59.9,53.1,47.1,83,65,40,29.43,29.28,11,1,11,0.00
2013-8-14,80.5,63.4,50.2,53.8,48.5,44.2,83,62,38,29.49,29.39,10,0,11,0.00
2013-8-15,60.8,60.0,58.9,50.1,49.7,49.3,72,69,67,29.41,29.40,0,0,0,0.00
2013-8-16,85.1,66.0,52.4,58.5,52.9,46.7,83,66,41,29.46,29.40,13,1,13,0.00
2013-8-17,87.5,65.5,-15.1,62.5,51.1,-24.5,85,64,38,29.48,29.40,11,1,12,0.00
2013-8-18,84.6,69.3,54.2,60.2,55.0,48.4,84,64,40,29.46,29.35,9,1,11,0.00
2013-8-19,85.3,73.1,60.5,64.1,59.5,52.1,81,65,49,29.36,29.27,11,2,13,0.00
2013-8-20,88.4,75.6,64.3,67.7,63.5,58.6,84,68,50,29.31,29.23,12,2,12,0.00
2013-8-21,91.6,77.7,67.1,70.3,65.8,60.8,81,69,50,29.29,29.21,12,3,12,0.00
2013-8-22,83.2,73.4,68.2,69.9,65.5,62.8,84,77,62,29.37,29.26,29,5,29,0.00
2013-8-23,88.7,73.8,61.0,67.1,62.8,56.8,89,71,49,29.41,29.34,12,2,12,0.00
2013-8-24,88.9,76.3,64.6,73.7,65.6,57.3,79,71,58,29.45,29.36,11,3,11,0.00
2013-8-25,94.3,78.8,0.0,71.2,64.3,0.0,86,64,43,29.43,29.35,12,5,12,0.00
2013-8-26,98.3,81.8,68.6,73.6,67.0,59.4,79,64,45,29.38,29.23,11,3,14,0.00
2013-8-27,101.0,85.1,70.9,72.6,68.2,65.0,84,61,41,29.24,29.12,12,4,13,0.00
2013-8-28,99.0,83.9,72.2,78.2,70.9,64.4,79,67,52,29.27,29.16,13,4,13,0.00
2013-8-29,99.7,84.5,73.3,75.9,71.6,68.1,88,69,44,29.31,29.20,11,4,14,0.00
2013-8-30,102.0,85.8,72.7,77.0,71.6,69.3,89,67,40,29.21,29.04,11,4,13,0.00
2013-8-31,93.8,79.1,31.3,71.2,66.8,24.9,80,68,48,29.12,29.04,12,5,13,0.00
2013-9-1,90.7,76.7,65.2,69.9,63.3,56.9,89,67,39,29.19,29.03,11,3,13,0.00
2013-9-2,82.6,66.6,56.5,56.9,53.9,48.9,85,67,40,29.31,29.18,10,1,12,0.00
2013-9-3,84.8,63.4,48.2,55.9,50.0,43.3,86,66,36,29.37,29.29,11,0,11,0.00
2013-9-4,97.0,72.7,54.2,66.0,56.9,47.4,79,61,39,29.40,29.31,11,2,11,0.00
2013-9-5,97.7,78.5,64.4,69.1,63.4,57.3,80,63,41,29.45,29.37,10,2,13,0.00
2013-9-6,97.6,76.3,62.6,63.6,59.6,56.3,80,60,33,29.42,29.23,12,3,16,0.00
2013-9-7,103.0,81.4,65.9,70.5,63.9,56.8,76,59,37,29.24,29.11,12,3,12,0.00
2013-9-8,88.4,76.1,71.3,70.5,66.4,64.4,81,73,56,29.25,29.13,13,6,14,0.00
2013-9-9,105.0,83.9,68.8,70.7,66.1,61.1,90,63,30,29.14,29.05,11,2,14,0.00
2013-9-10,106.0,85.3,70.9,65.1,61.3,58.0,67,49,28,29.25,29.15,13,4,13,0.00
2013-9-11,87.8,75.7,67.3,66.7,62.7,59.0,79,66,47,29.35,29.25,11,4,13,0.00
2013-9-12,91.6,68.7,57.8,59.0,51.2,44.8,79,58,27,29.42,29.30,11,1,11,0.00
2013-9-13,97.2,61.2,47.7,49.4,43.8,39.7,80,58,21,29.50,29.38,10,1,13,0.00
2013-9-14,78.1,60.6,46.1,45.8,41.1,37.0,73,53,30,29.42,29.21,11,1,13,0.00
2013-9-15,64.6,59.0,53.6,58.4,51.7,45.0,87,78,57,29.47,29.18,29,1,29,0.08
2013-9-16,90.4,60.0,51.1,56.0,49.7,44.0,87,72,34,29.63,29.48,10,1,14,0.00
2013-9-17,64.8,58.1,50.0,57.5,50.6,44.1,82,76,68,29.54,29.30,10,0,10,0.00
2013-9-18,99.2,72.3,60.8,71.2,62.5,56.8,90,74,40,29.29,29.06,11,2,15,0.00
2013-9-19,88.7,74.6,64.8,68.0,64.4,60.1,89,73,50,29.11,28.97,12,2,14,0.43
2013-9-20,65.7,60.2,52.4,62.5,52.8,45.6,90,78,66,29.20,29.09,8,0,13,0.00
2013-9-21,91.8,57.3,44.6,54.0,45.6,40.4,86,69,31,29.26,29.17,11,1,13,0.00
2013-9-22,97.0,60.5,45.2,57.4,46.7,39.7,86,65,30,29.29,29.19,10,1,13,0.00
2013-9-23,92.5,61.8,49.1,54.6,46.9,42.8,80,61,31,29.29,29.18,11,2,12,0.00
2013-9-24,74.0,61.2,50.0,56.3,49.1,43.5,80,66,51,29.23,29.14,11,2,13,0.00
2013-9-25,96.5,64.5,51.5,55.8,50.0,45.5,82,63,30,29.23,29.14,11,1,16,0.00
2013-9-26,93.2,68.6,53.8,60.6,53.8,47.3,81,63,34,29.26,29.18,12,2,12,0.00
2013-9-27,83.3,70.3,58.5,63.8,56.0,51.7,80,63,46,29.31,29.20,11,1,11,0.00
2013-9-28,70.9,62.1,50.2,62.0,54.4,46.5,89,77,61,29.29,29.10,11,1,18,0.22
2013-9-29,76.3,58.7,44.6,52.8,45.0,41.0,88,66,33,29.35,29.22,11,2,13,0.00
2013-9-30,87.1,64.0,47.5,53.1,45.9,40.9,80,57,32,29.22,29.04,10,1,13,0.00
2013-10-1,82.1,67.1,56.7,59.9,55.1,48.0,89,69,45,29.24,29.09,5,1,5,0.00
2013-10-2,93.6,67.3,53.3,62.9,51.1,44.3,76,59,37,29.32,29.16,11,1,11,0.00
2013-10-3,90.7,69.8,63.2,67.8,61.5,57.5,87,76,48,29.16,29.05,9,2,11,0.24
2013-10-4,73.1,67.1,61.2,68.9,62.9,57.6,91,87,82,29.20,29.04,12,3,12,0.14
2013-10-5,70.4,60.9,46.1,64.5,51.5,36.9,86,72,51,29.16,29.06,9,1,11,0.00
2013-10-6,50.6,45.2,-8.3,42.6,37.9,-14.9,86,76,66,29.09,28.98,8,0,8,0.00
2013-10-7,87.1,57.6,43.0,47.9,42.8,38.8,87,64,28,29.31,29.09,12,1,12,0.00
2013-10-8,91.1,66.6,48.6,48.9,43.4,23.6,77,51,25,29.37,29.28,10,1,13,0.00
2013-10-9,74.0,61.1,49.7,49.3,44.4,40.3,78,57,38,29.41,29.32,9,1,11,0.00
2013-10-10,74.9,61.1,46.6,53.9,46.4,39.4,80,61,46,29.37,29.22,11,2,12,0.00
2013-10-11,75.2,66.0,55.4,57.6,53.2,48.1,86,66,53,29.23,29.06,10,3,10,0.00
2013-10-12,75.2,56.9,46.6,56.1,44.1,31.2,80,64,43,29.47,29.09,9,1,9,0.00
2013-10-13,92.9,51.5,37.8,40.7,32.7,28.6,70,53,20,29.69,29.49,11,2,11,0.00
2013-10-14,63.7,51.3,36.4,42.0,35.4,28.8,76,57,39,29.63,29.22,12,2,12,0.00
2013-10-15,57.6,53.4,47.9,54.4,43.9,36.8,89,71,49,29.21,29.07,0,0,9,0.00
2013-10-16,49.5,46.9,45.7,42.9,41.4,40.2,85,81,75,29.24,29.13,29,1,29,0.00
2013-10-17,61.0,50.6,45.0,41.2,36.1,32.9,83,61,39,29.21,29.08,9,2,12,0.00
2013-10-18,51.1,46.5,40.3,38.0,33.2,26.7,80,61,51,29.25,29.14,0,0,0,0.00
2013-10-19,66.2,43.2,35.6,41.1,32.6,28.1,79,67,42,29.20,29.04,0,0,0,0.00
2013-10-20,59.6,46.4,37.6,47.9,36.5,30.0,77,69,58,29.13,28.97,3,0,5,0.00
2013-10-21,53.6,39.9,32.4,36.1,26.5,22.2,76,60,38,29.29,29.14,0,0,7,0.00
2013-10-22,37.3,33.6,29.9,32.3,26.3,21.6,82,75,66,29.24,29.18,0,0,0,0.12
2013-10-23,43.2,38.5,34.9,31.9,28.9,24.2,83,69,52,29.35,29.29,0,0,0,0.00
2013-10-24,43.4,36.0,31.1,25.5,24.0,21.7,71,62,50,29.59,29.35,0,0,0,0.00
2013-10-25,59.6,40.3,26.8,32.2,25.4,20.9,79,58,33,29.64,29.27,4,0,8,0.00
2013-10-26,63.5,43.4,34.4,32.4,27.8,23.1,71,56,32,29.38,29.16,10,0,11,0.00
2013-10-27,65.3,42.2,29.3,33.4,26.9,21.7,76,58,33,29.36,29.15,9,0,11,0.00
2013-10-28,61.2,44.6,37.1,40.4,31.9,25.2,72,62,48,29.57,29.25,6,0,6,0.00
2013-10-29,58.5,46.9,38.3,42.0,35.9,29.8,77,66,54,29.56,29.32,8,0,10,0.00
2013-10-30,56.9,53.4,50.4,54.0,49.3,41.0,91,86,70,29.31,28.95,10,0,10,0.00
2013-10-31,59.6,48.2,41.2,57.5,45.4,37.5,93,90,86,28.93,28.69,7,0,8,0.04
2013-11-1,52.9,44.0,40.9,41.2,38.2,35.0,89,80,63,29.07,28.75,0,0,0,0.00
2013-11-2,57.8,42.1,34.0,37.3,32.3,25.9,84,70,42,29.39,29.07,7,0,10,0.00
2013-11-3,54.7,43.0,32.9,37.1,31.2,25.9,78,65,48,29.46,29.30,10,0,10,0.00
2013-11-4,49.3,47.1,44.3,44.0,38.7,32.2,83,73,61,29.40,29.24,0,0,0,0.04
2013-11-5,54.5,49.9,45.7,52.3,45.8,40.2,92,86,81,29.44,29.06,0,0,10,0.53
2013-11-6,55.1,44.0,37.1,53.1,37.2,25.6,93,79,45,29.40,29.00,0,0,4,0.12
2013-11-7,52.7,34.9,27.9,33.4,26.6,22.0,84,72,49,29.53,29.47,0,0,0,0.00
2013-11-8,50.6,37.7,25.9,35.2,27.3,19.7,79,67,50,29.52,29.05,0,0,3,0.00
2013-11-9,56.7,44.5,34.2,38.2,34.0,27.7,79,68,49,29.49,29.06,10,0,10,0.00
2013-11-10,45.9,37.1,26.6,31.5,27.7,21.6,82,70,56,29.65,29.42,0,0,0,0.00
2013-11-11,43.7,33.0,17.8,33.0,23.6,10.1,78,69,62,29.88,29.33,0,0,0,0.00
2013-11-12,36.4,19.8,11.2,18.5,10.4,4.9,76,67,49,30.04,29.84,0,0,0,0.00
2013-11-13,49.3,28.7,16.7,18.1,13.1,9.0,72,56,28,29.83,29.40,1,0,5,0.00
2013-11-14,53.8,39.8,29.5,29.5,24.6,19.2,69,56,41,29.29,29.16,0,0,0,0.00
2013-11-15,61.9,42.7,31.7,36.0,29.9,24.3,75,62,39,29.19,29.05,5,0,7,0.00
2013-11-16,59.6,50.6,38.3,54.4,45.8,30.4,90,84,73,29.05,28.64,11,1,11,0.20
2013-11-17,55.6,46.7,37.1,52.5,42.6,32.4,91,86,78,29.15,28.54,0,0,10,0.71
2013-11-18,45.2,34.7,27.0,32.4,27.9,21.6,86,77,56,29.54,29.16,0,0,0,0.00
2013-11-19,46.8,33.9,25.0,32.4,25.6,20.1,82,72,58,29.55,29.36,0,0,0,0.00
2013-11-20,37.4,36.3,35.5,33.9,30.3,27.1,87,79,69,29.36,29.22,0,0,0,0.27
2013-11-21,43.7,36.1,31.1,39.5,32.3,28.0,89,86,80,29.58,29.30,0,0,0,0.02
2013-11-22,33.8,25.0,14.6,27.5,19.4,8.8,88,79,66,29.81,29.60,0,0,0,0.04
2013-11-23,30.4,14.9,6.1,15.5,6.6,-0.8,78,69,52,30.01,29.77,0,0,0,0.00
2013-11-24,30.6,15.9,6.1,12.8,6.1,-0.5,75,65,48,29.98,29.54,0,0,0,0.00
2013-11-25,33.8,26.6,20.3,25.4,20.1,11.5,83,76,66,29.52,29.32,0,0,0,0.00
2013-11-26,29.7,23.4,11.9,23.3,14.2,3.1,81,68,48,29.55,29.33,0,0,0,0.00
2013-11-27,29.0,15.6,6.5,13.4,6.5,0.1,75,67,52,29.61,29.39,0,0,0,0.00
2013-11-28,33.1,21.7,14.8,19.7,13.0,7.8,75,69,58,29.74,29.32,0,0,0,0.00
2013-11-29,36.5,23.8,11.5,22.9,15.1,5.2,79,70,58,29.79,29.52,0,0,0,0.00
2013-11-30,49.0,33.7,25.2,34.0,25.6,18.3,81,73,57,29.50,29.29,0,0,0,0.00
2013-12-1,44.6,34.9,25.7,32.2,27.4,20.8,83,74,62,29.40,29.19,0,0,0,0.00
2013-12-2,40.9,36.3,32.0,33.8,30.1,25.5,84,78,74,29.19,28.87,0,0,0,0.00
2013-12-3,44.8,40.0,35.8,40.7,36.3,31.8,88,86,84,28.92,28.81,0,0,0,0.00
2013-12-4,47.7,40.0,33.8,45.5,37.0,30.4,92,89,87,29.10,28.70,0,0,0,0.06
2013-12-5,33.8,17.3,9.7,30.4,10.5,2.6,87,74,67,29.59,29.09,0,0,0,0.00
2013-12-6,14.0,10.3,6.1,3.5,1.6,-0.5,75,67,61,29.76,29.59,0,0,0,0.00
2013-12-8,21.4,21.1,20.9,16.3,15.7,15.3,80,79,78,29.27,29.24,0,0,0,0.00
2013-12-9,20.9,4.2,-3.6,15.7,-2.3,-10.5,82,73,63,29.49,29.25,0,0,0,0.00
2013-12-10,133.0,12.7,-3.4,99.9,4.1,-9.9,76,69,65,29.49,29.20,0,0,0,0.00
2013-12-11,14.0,8.6,1.6,4.8,-0.6,-7.5,68,65,63,29.83,29.47,0,0,0,0.00
2013-12-12,21.4,19.0,0.0,11.5,10.2,0.0,66,60,65,29.59,29.41,0,0,0,0.00
2013-12-13,21.4,17.2,14.4,11.5,9.6,8.3,76,72,65,29.40,29.35,0,0,0,0.00
2013-12-14,25.9,20.3,0.0,18.8,14.0,0.0,79,73,74,29.35,29.29,0,0,0,0.00
2013-12-15,15.1,11.5,6.5,6.9,3.1,-7.2,77,69,38,29.37,29.31,0,0,0,0.00
2013-12-16,22.1,16.2,14.2,13.9,9.1,7.2,74,73,70,29.33,29.23,0,0,0,0.00
2013-12-17,32.6,23.0,16.9,25.8,16.4,10.0,82,76,67,29.42,29.27,0,0,0,0.04
2013-12-18,40.7,26.9,16.7,29.7,19.3,10.3,79,73,64,29.41,29.01,0,0,0,0.00
2013-12-19,38.5,31.9,24.5,31.2,25.9,19.5,83,78,71,29.12,29.03,0,0,0,0.00
2013-12-20,31.7,26.3,23.0,27.4,22.0,19.5,87,84,81,29.13,29.03,0,0,0,0.00
2013-12-21,29.5,26.3,22.7,24.1,21.3,6.8,87,82,40,29.13,28.96,0,0,0,0.00
2013-12-22,28.3,20.8,6.5,24.4,15.9,0.9,86,81,75,29.50,28.97,0,0,0,0.04
2013-12-23,3.4,-1.8,-8.8,-2.3,-8.1,-15.4,76,73,67,29.75,29.51,0,0,0,0.00
2013-12-24,12.8,-1.8,-9.9,7.3,-9.0,-16.7,78,70,65,29.77,29.45,0,0,0,0.00
2013-12-25,25.0,20.2,13.3,20.9,15.4,8.1,86,82,79,29.46,29.37,0,0,0,0.00
2013-12-26,32.4,25.7,23.6,24.3,20.7,18.3,83,80,72,29.46,29.38,0,0,0,0.02
2013-12-27,38.5,29.3,17.5,28.8,22.5,12.4,84,76,67,29.48,29.30,0,0,0,0.04
2013-12-28,43.9,35.3,29.3,33.5,27.8,23.8,81,74,67,29.32,29.05,0,0,0,0.00
2013-12-29,31.7,12.3,-3.8,27.1,6.2,-10.9,84,76,69,29.55,29.08,0,0,0,0.00
2013-12-30,11.2,2.8,-5.8,2.4,-4.7,-12.7,72,70,66,29.55,29.41,0,0,0,0.00
2013-12-31,14.9,7.2,-4.0,6.6,-0.2,-10.5,76,71,66,29.57,29.45,0,0,0,0.00
2014-1-1,18.2,13.9,9.2,10.2,5.7,2.4,73,69,66,29.55,29.46,0,0,0,0.00
2014-1-2,15.7,15.7,15.7,6.4,6.4,6.4,66,65,62,29.70,29.52,0,0,0,0.00